PAHC

Holy Cross Airport

Airport
ICAO code
PAHC
IATA Code
HCR
Summary
ICAO Region
NAM
ICAO Territory
Location

, Alaska

Serving
Holy Cross
Elevation
70 ft
Coordinates
62° 11' 18" N , 159° 46' 30" W
Metar
PAHC 240356Z AUTO 35003KT 10SM CLR 28/15 A2997 RMK AO2 SLP152 T02830150

Runways

Designator Length Width Surface Rops
1/19 1219 30 GRAVEL-G No/No

Airport map

Aerial View

SKYbrary Partners:

Safety knowledge contributed by: